Time;durP1;ratioP1;P1;durP2;ratioP2;P2;SDS_P1;SDS_P2;PMS_P1;PMS_P2;Temp;Humidity;BMP_temperature;BMP_pressure;BME280_temperature;BME280_humidity;BME280_pressure;Samples;Min_cycle;Max_cycle;Signal;HPM_P1;HPM_P2
2023/07/17 00:01:22;;;;;;;3.47;1.30;;;;;;;;;;5113129;28;20194;-77
2023/07/17 00:03:51;;;;;;;6.43;1.60;;;;;;;;;;5130414;27;20232;-77
2023/07/17 00:06:18;;;;;;;6.03;1.80;;;;;;;;;;5133440;27;20292;-76
2023/07/17 00:08:46;;;;;;;5.70;1.43;;;;;;;;;;5132571;27;20223;-76
2023/07/17 00:11:13;;;;;;;10.13;2.03;;;;;;;;;;5133593;27;20193;-75
2023/07/17 00:13:40;;;;;;;5.63;1.30;;;;;;;;;;5133313;27;20284;-75
2023/07/17 00:16:07;;;;;;;3.40;1.23;;;;;;;;;;5133715;27;20303;-76
2023/07/17 00:18:35;;;;;;;6.60;1.53;;;;;;;;;;5133580;27;20193;-75
2023/07/17 00:21:04;;;;;;;4.37;1.53;;;;;;;;;;5133441;27;20227;-75
2023/07/17 00:23:31;;;;;;;8.93;2.37;;;;;;;;;;5129094;27;20241;-75
2023/07/17 00:25:58;;;;;;;7.37;1.70;;;;;;;;;;5113061;28;20200;-77
2023/07/17 00:28:25;;;;;;;6.30;2.00;;;;;;;;;;5112588;28;20284;-76
2023/07/17 00:30:53;;;;;;;6.90;1.57;;;;;;;;;;5112578;28;20201;-77
2023/07/17 00:33:20;;;;;;;7.53;2.00;;;;;;;;;;5112843;28;20281;-76
2023/07/17 00:35:47;;;;;;;5.67;1.80;;;;;;;;;;5112823;28;20233;-77
2023/07/17 00:38:15;;;;;;;4.40;1.73;;;;;;;;;;5112525;28;20235;-76
2023/07/17 00:40:43;;;;;;;6.80;1.93;;;;;;;;;;5112083;28;20289;-76
2023/07/17 00:43:11;;;;;;;7.47;1.70;;;;;;;;;;5112516;28;20280;-76
2023/07/17 00:45:39;;;;;;;9.43;2.10;;;;;;;;;;5112633;28;20280;-76
2023/07/17 00:48:07;;;;;;;7.77;1.80;;;;;;;;;;5112328;28;20592;-76
2023/07/17 00:50:34;;;;;;;7.63;1.90;;;;;;;;;;5112261;28;20256;-76
2023/07/17 00:53:03;;;;;;;6.30;1.60;;;;;;;;;;5112597;28;20284;-76
2023/07/17 00:55:33;;;;;;;4.50;1.70;;;;;;;;;;5112011;28;20716;-76
2023/07/17 00:58:00;;;;;;;4.10;1.73;;;;;;;;;;5112109;28;20225;-76
2023/07/17 01:00:28;;;;;;;5.23;1.57;;;;;;;;;;5112701;28;20224;-76
2023/07/17 01:02:55;;;;;;;5.43;1.87;;;;;;;;;;5111460;28;20198;-76
2023/07/17 01:05:22;;;;;;;4.50;1.60;;;;;;;;;;5112663;28;20289;-76
2023/07/17 01:07:50;;;;;;;5.30;1.80;;;;;;;;;;5112171;28;20624;-76
2023/07/17 01:10:17;;;;;;;7.87;1.60;;;;;;;;;;5111416;28;20204;-76
2023/07/17 01:12:45;;;;;;;7.23;2.00;;;;;;;;;;5111935;28;20662;-76
2023/07/17 01:15:13;;;;;;;9.13;1.93;;;;;;;;;;5113333;28;20284;-76
2023/07/17 01:17:40;;;;;;;6.90;1.93;;;;;;;;;;5132309;27;20308;-76
2023/07/17 01:20:09;;;;;;;4.13;1.67;;;;;;;;;;5132353;27;20665;-75
2023/07/17 01:22:40;;;;;;;6.87;1.80;;;;;;;;;;5132370;27;20576;-76
2023/07/17 01:25:09;;;;;;;6.33;1.80;;;;;;;;;;5131994;27;20205;-76
2023/07/17 01:27:36;;;;;;;5.23;1.97;;;;;;;;;;5132032;27;20288;-76
2023/07/17 01:30:04;;;;;;;6.97;1.70;;;;;;;;;;5132220;27;20279;-76
2023/07/17 01:32:32;;;;;;;7.53;1.97;;;;;;;;;;5132136;27;20234;-76
2023/07/17 01:34:59;;;;;;;5.67;2.73;;;;;;;;;;5132120;27;20204;-76
2023/07/17 01:37:26;;;;;;;5.37;1.80;;;;;;;;;;5132321;27;20293;-76
2023/07/17 01:39:53;;;;;;;8.03;1.97;;;;;;;;;;5131881;27;20224;-76
2023/07/17 01:42:22;;;;;;;9.47;2.20;;;;;;;;;;5132304;27;20291;-76
2023/07/17 01:44:49;;;;;;;8.53;1.93;;;;;;;;;;5131993;27;20212;-76
2023/07/17 01:47:16;;;;;;;7.17;2.10;;;;;;;;;;5132201;27;20288;-76
2023/07/17 01:49:43;;;;;;;8.13;2.00;;;;;;;;;;5132316;28;20224;-75
2023/07/17 01:52:12;;;;;;;6.60;2.20;;;;;;;;;;5131969;28;20328;-75
2023/07/17 01:54:39;;;;;;;7.37;2.07;;;;;;;;;;5131779;27;20638;-75
2023/07/17 01:57:07;;;;;;;7.27;2.57;;;;;;;;;;5132046;27;20311;-76
2023/07/17 01:59:35;;;;;;;6.30;2.00;;;;;;;;;;5131840;28;20276;-76
2023/07/17 02:02:02;;;;;;;10.07;2.10;;;;;;;;;;5132534;27;20291;-76
2023/07/17 02:04:30;;;;;;;7.03;2.00;;;;;;;;;;5131903;28;20288;-76
2023/07/17 02:06:57;;;;;;;10.23;2.23;;;;;;;;;;5131661;28;20692;-76
2023/07/17 02:09:24;;;;;;;8.67;2.10;;;;;;;;;;5131326;28;20636;-76
2023/07/17 02:11:51;;;;;;;9.30;2.30;;;;;;;;;;5132133;28;20280;-76
2023/07/17 02:14:18;;;;;;;6.93;2.23;;;;;;;;;;5131546;28;20212;-76
2023/07/17 02:16:47;;;;;;;9.13;2.20;;;;;;;;;;5128030;27;20249;-75
2023/07/17 02:19:16;;;;;;;7.10;2.30;;;;;;;;;;5111139;28;20289;-75
2023/07/17 02:21:43;;;;;;;5.97;2.20;;;;;;;;;;5111468;28;20202;-76
2023/07/17 02:24:10;;;;;;;7.93;2.33;;;;;;;;;;5110857;28;20193;-76
2023/07/17 02:26:37;;;;;;;8.47;2.20;;;;;;;;;;5111110;28;20288;-75
2023/07/17 02:29:04;;;;;;;4.80;2.20;;;;;;;;;;5110790;28;20281;-75
2023/07/17 02:31:32;;;;;;;5.57;2.17;;;;;;;;;;5112743;28;20292;-75
2023/07/17 02:34:00;;;;;;;11.17;2.60;;;;;;;;;;5114961;28;20194;-76
2023/07/17 02:36:27;;;;;;;11.10;2.93;;;;;;;;;;5114676;28;20748;-76
2023/07/17 02:38:54;;;;;;;9.83;2.80;;;;;;;;;;5114488;28;20324;-76
2023/07/17 02:41:22;;;;;;;8.80;2.47;;;;;;;;;;5115076;28;20282;-76
2023/07/17 02:43:51;;;;;;;8.33;2.73;;;;;;;;;;5114780;28;20194;-76
2023/07/17 02:46:18;;;;;;;8.30;2.00;;;;;;;;;;5114684;28;20259;-75
2023/07/17 02:48:45;;;;;;;6.97;2.40;;;;;;;;;;5114866;28;20289;-76
2023/07/17 02:51:14;;;;;;;7.17;2.50;;;;;;;;;;5114749;28;20308;-76
2023/07/17 02:53:41;;;;;;;8.07;2.13;;;;;;;;;;5114858;28;20217;-77
2023/07/17 02:56:09;;;;;;;7.17;2.40;;;;;;;;;;5114722;28;20201;-76
2023/07/17 02:58:42;;;;;;;7.47;2.10;;;;;;;;;;5114186;28;20229;-75
2023/07/17 03:01:09;;;;;;;5.37;2.13;;;;;;;;;;5114142;28;20194;-75
2023/07/17 03:03:37;;;;;;;7.00;2.40;;;;;;;;;;5114650;28;20229;-75
2023/07/17 03:06:04;;;;;;;10.50;2.30;;;;;;;;;;5113868;28;20658;-76
2023/07/17 03:08:33;;;;;;;9.40;2.53;;;;;;;;;;5114406;28;20198;-74
2023/07/17 03:11:03;;;;;;;8.10;2.60;;;;;;;;;;5114497;28;20197;-75
2023/07/17 03:13:30;;;;;;;9.27;2.47;;;;;;;;;;5114213;28;20666;-76
2023/07/17 03:15:58;;;;;;;9.57;2.60;;;;;;;;;;5122154;27;20580;-76
2023/07/17 03:18:25;;;;;;;6.47;2.27;;;;;;;;;;5134928;27;20229;-76
2023/07/17 03:20:53;;;;;;;6.93;2.37;;;;;;;;;;5134085;27;20195;-76
2023/07/17 03:23:20;;;;;;;5.97;2.23;;;;;;;;;;5134348;27;20272;-75
2023/07/17 03:25:49;;;;;;;8.80;2.53;;;;;;;;;;5134806;27;20304;-75
2023/07/17 03:28:16;;;;;;;6.13;2.40;;;;;;;;;;5134418;27;20194;-76
2023/07/17 03:30:43;;;;;;;9.83;2.60;;;;;;;;;;5134412;27;20288;-75
2023/07/17 03:33:10;;;;;;;7.10;2.27;;;;;;;;;;5134640;27;20280;-75
2023/07/17 03:35:37;;;;;;;7.47;2.50;;;;;;;;;;5133812;27;20826;-76
2023/07/17 03:38:05;;;;;;;9.17;2.40;;;;;;;;;;5134715;27;20225;-75
2023/07/17 03:40:32;;;;;;;6.80;2.40;;;;;;;;;;5134298;27;20296;-75
2023/07/17 03:43:00;;;;;;;10.60;2.53;;;;;;;;;;5134192;27;20194;-75
2023/07/17 03:45:27;;;;;;;7.53;3.13;;;;;;;;;;5134393;27;20409;-75
2023/07/17 03:47:54;;;;;;;10.53;2.97;;;;;;;;;;5134932;27;20290;-75
2023/07/17 03:50:22;;;;;;;6.40;2.57;;;;;;;;;;5133292;27;20229;-77
2023/07/17 03:52:50;;;;;;;9.20;2.30;;;;;;;;;;5133928;27;20241;-75
2023/07/17 03:55:17;;;;;;;9.43;2.80;;;;;;;;;;5134031;27;20628;-76
2023/07/17 03:57:44;;;;;;;7.93;2.50;;;;;;;;;;5134314;27;20232;-76
2023/07/17 04:00:14;;;;;;;8.87;2.53;;;;;;;;;;5133809;27;20298;-75
2023/07/17 04:02:42;;;;;;;4.37;2.60;;;;;;;;;;5133834;27;20193;-75
2023/07/17 04:05:10;;;;;;;10.83;2.80;;;;;;;;;;5134037;27;20291;-75
2023/07/17 04:07:37;;;;;;;8.63;2.40;;;;;;;;;;5134133;27;20200;-75
2023/07/17 04:10:05;;;;;;;8.13;2.30;;;;;;;;;;5133595;27;20288;-76
2023/07/17 04:12:33;;;;;;;9.03;2.37;;;;;;;;;;5133881;27;20200;-75
2023/07/17 04:15:00;;;;;;;10.10;2.73;;;;;;;;;;5133522;27;20193;-76
2023/07/17 04:17:29;;;;;;;8.77;2.83;;;;;;;;;;5133618;27;20217;-75
2023/07/17 04:19:56;;;;;;;10.10;2.73;;;;;;;;;;5133473;27;20284;-75
2023/07/17 04:22:23;;;;;;;9.17;2.43;;;;;;;;;;5133653;27;20296;-75
2023/07/17 04:24:50;;;;;;;7.97;2.90;;;;;;;;;;5132941;27;20280;-76
2023/07/17 04:27:17;;;;;;;7.30;2.70;;;;;;;;;;5133660;27;20280;-76
2023/07/17 04:29:45;;;;;;;9.00;3.10;;;;;;;;;;5133657;27;20229;-76
2023/07/17 04:32:12;;;;;;;8.77;3.17;;;;;;;;;;5133423;27;20220;-75
2023/07/17 04:34:40;;;;;;;9.53;3.10;;;;;;;;;;5132984;27;20197;-76
2023/07/17 04:37:07;;;;;;;7.73;3.00;;;;;;;;;;5132933;27;20560;-76
2023/07/17 04:39:35;;;;;;;7.13;2.93;;;;;;;;;;5133147;27;20328;-76
2023/07/17 04:42:02;;;;;;;11.23;3.50;;;;;;;;;;5132832;27;20292;-74
2023/07/17 04:44:29;;;;;;;7.27;2.80;;;;;;;;;;5133288;27;20241;-75
2023/07/17 04:46:56;;;;;;;7.07;2.60;;;;;;;;;;5132789;27;20750;-74
2023/07/17 04:49:24;;;;;;;8.23;2.87;;;;;;;;;;5132189;27;20725;-77
2023/07/17 04:51:52;;;;;;;6.00;2.70;;;;;;;;;;5133254;27;20288;-75
2023/07/17 04:54:19;;;;;;;8.33;2.93;;;;;;;;;;5131881;27;20306;-76
2023/07/17 04:56:47;;;;;;;9.43;3.33;;;;;;;;;;5132790;27;20279;-76
2023/07/17 04:59:15;;;;;;;8.00;3.30;;;;;;;;;;5132969;27;20324;-76
2023/07/17 05:01:42;;;;;;;8.77;2.90;;;;;;;;;;5132570;27;20205;-76
2023/07/17 05:04:09;;;;;;;6.80;2.90;;;;;;;;;;5132678;27;20279;-76
2023/07/17 05:06:36;;;;;;;11.03;2.87;;;;;;;;;;5133251;27;20292;-76
2023/07/17 05:09:05;;;;;;;10.33;3.17;;;;;;;;;;5132426;27;20280;-76
2023/07/17 05:11:32;;;;;;;8.43;3.00;;;;;;;;;;5132522;27;20673;-77
2023/07/17 05:14:02;;;;;;;9.67;4.00;;;;;;;;;;5132298;27;20756;-75
2023/07/17 05:16:29;;;;;;;9.40;3.30;;;;;;;;;;5132084;27;20616;-73
2023/07/17 05:18:56;;;;;;;11.73;3.97;;;;;;;;;;5132382;27;20708;-74
2023/07/17 05:21:23;;;;;;;7.33;3.30;;;;;;;;;;5131959;27;20843;-75
2023/07/17 05:23:51;;;;;;;12.33;3.60;;;;;;;;;;5132557;27;20228;-76
2023/07/17 05:26:20;;;;;;;7.97;3.97;;;;;;;;;;5132480;27;20193;-75
2023/07/17 05:28:49;;;;;;;7.77;3.60;;;;;;;;;;5132504;27;20204;-75
2023/07/17 05:31:16;;;;;;;9.90;3.90;;;;;;;;;;5132197;27;20192;-76
2023/07/17 05:33:43;;;;;;;10.43;3.87;;;;;;;;;;5132146;27;20673;-75
2023/07/17 05:36:10;;;;;;;10.07;3.93;;;;;;;;;;5131978;27;20732;-76
2023/07/17 05:38:38;;;;;;;6.90;2.93;;;;;;;;;;5132055;27;20316;-76
2023/07/17 05:41:05;;;;;;;7.83;2.80;;;;;;;;;;5132620;27;20217;-74
2023/07/17 05:43:34;;;;;;;5.67;2.87;;;;;;;;;;5132073;27;20284;-75
2023/07/17 05:46:02;;;;;;;7.20;3.47;;;;;;;;;;5131819;27;20279;-75
2023/07/17 05:48:29;;;;;;;9.13;3.13;;;;;;;;;;5132003;27;20217;-75
2023/07/17 05:50:56;;;;;;;6.60;3.07;;;;;;;;;;5132021;27;20229;-76
2023/07/17 05:53:24;;;;;;;9.40;3.20;;;;;;;;;;5132234;28;20284;-76
2023/07/17 05:55:52;;;;;;;10.20;2.80;;;;;;;;;;5132483;28;20201;-76
2023/07/17 05:58:19;;;;;;;10.23;2.70;;;;;;;;;;5131379;27;20285;-76
2023/07/17 06:00:47;;;;;;;7.60;2.90;;;;;;;;;;5131540;28;20228;-75
2023/07/17 06:03:15;;;;;;;6.83;2.73;;;;;;;;;;5132095;27;20649;-75
2023/07/17 06:05:42;;;;;;;9.10;2.60;;;;;;;;;;5133632;27;20609;-75
2023/07/17 06:08:10;;;;;;;12.23;2.93;;;;;;;;;;5136396;27;20224;-76
2023/07/17 06:10:37;;;;;;;7.63;2.93;;;;;;;;;;5136155;27;20250;-76
2023/07/17 06:13:05;;;;;;;8.83;3.30;;;;;;;;;;5136149;27;20622;-76
2023/07/17 06:15:32;;;;;;;7.22;2.85;;;;;;;;;;5135892;27;20291;-76
2023/07/17 06:18:00;;;;;;;8.65;2.70;;;;;;;;;;5135658;27;20215;-76
2023/07/17 06:20:27;;;;;;;5.45;2.63;;;;;;;;;;5135889;27;20200;-75
2023/07/17 06:22:55;;;;;;;7.43;2.42;;;;;;;;;;5135313;27;20201;-76
2023/07/17 06:25:22;;;;;;;7.05;2.55;;;;;;;;;;5135822;27;20307;-74
2023/07/17 06:27:49;;;;;;;9.77;2.70;;;;;;;;;;5136279;27;20275;-75
2023/07/17 06:30:16;;;;;;;9.02;2.60;;;;;;;;;;5135318;27;20303;-75
2023/07/17 06:32:44;;;;;;;9.68;2.67;;;;;;;;;;5135767;27;20193;-75
2023/07/17 06:35:12;;;;;;;5.03;2.30;;;;;;;;;;5135456;27;20196;-75
2023/07/17 06:37:39;;;;;;;6.25;2.00;;;;;;;;;;5135557;27;20386;-74
2023/07/17 06:40:08;;;;;;;5.57;2.35;;;;;;;;;;5135474;27;20320;-75
2023/07/17 06:42:35;;;;;;;5.85;2.40;;;;;;;;;;5135834;27;20265;-75
2023/07/17 06:45:02;;;;;;;7.45;2.45;;;;;;;;;;5134935;27;20744;-75
2023/07/17 06:47:30;;;;;;;4.90;2.40;;;;;;;;;;5135632;27;20189;-76
2023/07/17 06:49:58;;;;;;;5.93;2.22;;;;;;;;;;5135486;27;20683;-75
2023/07/17 06:52:26;;;;;;;8.13;2.60;;;;;;;;;;5135255;27;20244;-75
2023/07/17 06:54:53;;;;;;;5.00;2.10;;;;;;;;;;5134983;27;20203;-75
2023/07/17 06:57:22;;;;;;;4.88;2.60;;;;;;;;;;5134553;27;20681;-75
2023/07/17 06:59:49;;;;;;;9.45;2.33;;;;;;;;;;5134886;27;20380;-75
2023/07/17 07:02:16;;;;;;;8.20;2.50;;;;;;;;;;5134803;27;20193;-75
2023/07/17 07:04:44;;;;;;;4.80;2.13;;;;;;;;;;5134618;27;20757;-76
2023/07/17 07:07:11;;;;;;;7.90;2.70;;;;;;;;;;5135106;27;20642;-75
2023/07/17 07:09:39;;;;;;;4.93;2.08;;;;;;;;;;5134410;27;20649;-75
2023/07/17 07:12:07;;;;;;;4.45;2.00;;;;;;;;;;5134805;27;20279;-76
2023/07/17 07:14:34;;;;;;;5.22;2.17;;;;;;;;;;5135261;27;20248;-76
2023/07/17 07:17:02;;;;;;;6.80;2.22;;;;;;;;;;5128496;27;20662;-76
2023/07/17 07:19:29;;;;;;;5.07;2.30;;;;;;;;;;5134169;27;20225;-76
2023/07/17 07:21:56;;;;;;;5.95;2.10;;;;;;;;;;5124971;27;20198;-78
2023/07/17 07:24:24;;;;;;;5.20;2.60;;;;;;;;;;5114907;27;20233;-78
2023/07/17 07:26:52;;;;;;;6.97;2.53;;;;;;;;;;5115586;27;20292;-77
2023/07/17 07:29:19;;;;;;;6.82;2.40;;;;;;;;;;5114011;28;20674;-77
2023/07/17 07:31:46;;;;;;;6.30;2.17;;;;;;;;;;5114048;28;20201;-78
2023/07/17 07:34:14;;;;;;;5.40;2.15;;;;;;;;;;5113727;28;20232;-77
2023/07/17 07:36:41;;;;;;;4.78;2.10;;;;;;;;;;5113534;28;20606;-77
2023/07/17 07:39:08;;;;;;;6.63;2.50;;;;;;;;;;5120675;27;20315;-76
2023/07/17 07:41:36;;;;;;;4.80;2.15;;;;;;;;;;5119128;27;20289;-77
2023/07/17 07:44:05;;;;;;;6.18;2.13;;;;;;;;;;5119524;27;20201;-77
2023/07/17 07:46:32;;;;;;;4.75;2.10;;;;;;;;;;5113845;28;20289;-77
2023/07/17 07:48:59;;;;;;;4.90;2.10;;;;;;;;;;5130057;27;20291;-78
2023/07/17 07:51:27;;;;;;;6.63;2.10;;;;;;;;;;5132152;27;20265;-77
2023/07/17 07:53:54;;;;;;;5.40;2.10;;;;;;;;;;5134444;27;20225;-76
2023/07/17 07:56:21;;;;;;;5.43;2.10;;;;;;;;;;5133844;27;20203;-76
2023/07/17 07:58:49;;;;;;;5.60;1.77;;;;;;;;;;5134028;27;20317;-77
2023/07/17 08:01:17;;;;;;;5.35;1.63;;;;;;;;;;5125470;27;20225;-77
2023/07/17 08:03:45;;;;;;;4.35;1.83;;;;;;;;;;5114110;28;20221;-78
2023/07/17 08:06:12;;;;;;;3.88;1.58;;;;;;;;;;5113213;28;20650;-78
2023/07/17 08:08:39;;;;;;;5.53;1.80;;;;;;;;;;5113295;28;20568;-77
2023/07/17 08:11:06;;;;;;;3.00;1.58;;;;;;;;;;5113224;28;20229;-76
2023/07/17 08:13:33;;;;;;;4.90;1.90;;;;;;;;;;5113076;28;20300;-76
2023/07/17 08:16:00;;;;;;;4.50;1.90;;;;;;;;;;5120303;27;20197;-77
2023/07/17 08:18:29;;;;;;;4.32;2.00;;;;;;;;;;5124164;27;20288;-76
2023/07/17 08:20:56;;;;;;;3.70;2.00;;;;;;;;;;5124927;27;20201;-77
2023/07/17 08:23:26;;;;;;;6.10;1.80;;;;;;;;;;5131883;27;20295;-78
2023/07/17 08:25:54;;;;;;;4.75;1.85;;;;;;;;;;5133253;27;20291;-77
2023/07/17 08:28:21;;;;;;;4.45;1.90;;;;;;;;;;5133143;27;20288;-77
2023/07/17 08:30:48;;;;;;;6.63;2.30;;;;;;;;;;5133048;27;20235;-77
2023/07/17 08:33:15;;;;;;;6.05;1.95;;;;;;;;;;5133297;27;20231;-78
2023/07/17 08:35:44;;;;;;;3.22;1.58;;;;;;;;;;5132801;27;20712;-77
2023/07/17 08:38:11;;;;;;;6.00;1.83;;;;;;;;;;5133160;27;20280;-78
2023/07/17 08:40:40;;;;;;;3.80;1.75;;;;;;;;;;5129129;27;20225;-77
2023/07/17 08:43:08;;;;;;;3.33;2.00;;;;;;;;;;5133167;27;20237;-78
2023/07/17 08:45:35;;;;;;;3.80;1.80;;;;;;;;;;5132723;27;20287;-78
2023/07/17 08:48:03;;;;;;;4.28;2.03;;;;;;;;;;5133292;27;20217;-79
2023/07/17 08:50:31;;;;;;;3.28;1.70;;;;;;;;;;5133281;27;20244;-80
2023/07/17 08:52:59;;;;;;;4.93;1.70;;;;;;;;;;5129604;27;20265;-79
2023/07/17 08:55:29;;;;;;;5.15;2.00;;;;;;;;;;5132346;27;20236;-78
2023/07/17 08:57:56;;;;;;;4.80;2.00;;;;;;;;;;5133022;27;20197;-77
2023/07/17 09:00:24;;;;;;;4.95;2.30;;;;;;;;;;5132111;27;20263;-78
2023/07/17 09:02:52;;;;;;;2.83;1.58;;;;;;;;;;5132445;27;20255;-78
2023/07/17 09:05:19;;;;;;;2.83;1.70;;;;;;;;;;5132199;27;20288;-78
2023/07/17 09:07:47;;;;;;;2.60;1.83;;;;;;;;;;5130250;27;20239;-77
2023/07/17 09:10:16;;;;;;;3.20;1.58;;;;;;;;;;5131681;27;20200;-77
2023/07/17 09:12:44;;;;;;;3.10;1.67;;;;;;;;;;5131996;27;20284;-77
2023/07/17 09:15:15;;;;;;;3.33;1.60;;;;;;;;;;5132425;27;20213;-78
2023/07/17 09:17:42;;;;;;;4.15;1.85;;;;;;;;;;5132298;27;20573;-78
2023/07/17 09:20:11;;;;;;;4.07;1.85;;;;;;;;;;5132269;27;20252;-77
2023/07/17 09:22:39;;;;;;;3.92;1.80;;;;;;;;;;5132479;27;20244;-78
2023/07/17 09:25:06;;;;;;;3.28;1.85;;;;;;;;;;5132727;27;20224;-76
2023/07/17 09:27:43;;;;;;;4.90;1.85;;;;;;;;;;5132430;27;20299;-78
2023/07/17 09:30:11;;;;;;;3.42;1.67;;;;;;;;;;5131958;27;20189;-78
2023/07/17 09:32:38;;;;;;;3.58;1.80;;;;;;;;;;5132694;27;20249;-77
2023/07/17 09:35:07;;;;;;;3.63;1.80;;;;;;;;;;5132460;27;20761;-78
2023/07/17 09:37:35;;;;;;;3.35;1.60;;;;;;;;;;5132052;27;20212;-77
2023/07/17 09:40:07;;;;;;;5.03;1.75;;;;;;;;;;5132104;27;20731;-77
2023/07/17 09:42:34;;;;;;;2.28;1.52;;;;;;;;;;5132562;27;20189;-78
2023/07/17 09:45:03;;;;;;;3.35;1.55;;;;;;;;;;5132557;27;20611;-77
2023/07/17 09:47:31;;;;;;;4.35;1.73;;;;;;;;;;5132342;27;20288;-79
2023/07/17 09:49:59;;;;;;;4.03;1.60;;;;;;;;;;5132152;27;20189;-77
2023/07/17 09:52:29;;;;;;;5.18;1.55;;;;;;;;;;5131523;28;20248;-78
2023/07/17 09:54:57;;;;;;;4.47;1.65;;;;;;;;;;5134705;27;20204;-77
2023/07/17 09:57:28;;;;;;;3.47;1.60;;;;;;;;;;5138419;27;20193;-77
2023/07/17 09:59:59;;;;;;;4.65;1.70;;;;;;;;;;5141272;27;20216;-77
2023/07/17 10:02:31;;;;;;;4.35;1.80;;;;;;;;;;5105082;27;20684;-78
2023/07/17 10:05:00;;;;;;;3.00;1.60;;;;;;;;;;5130243;27;20228;-76
2023/07/17 10:07:29;;;;;;;1.50;1.38;;;;;;;;;;5130062;27;20185;-78
2023/07/17 10:09:57;;;;;;;4.63;1.67;;;;;;;;;;5130652;27;20319;-78
2023/07/17 10:12:25;;;;;;;2.78;1.50;;;;;;;;;;5131669;27;20307;-77
2023/07/17 10:14:52;;;;;;;3.60;1.65;;;;;;;;;;5135245;27;20576;-79
2023/07/17 10:17:26;;;;;;;3.47;1.58;;;;;;;;;;5133993;27;20658;-78
2023/07/17 10:19:57;;;;;;;2.75;1.40;;;;;;;;;;5151498;27;20316;-77
2023/07/17 10:22:28;;;;;;;2.58;1.50;;;;;;;;;;5151781;27;20280;-78
2023/07/17 10:24:56;;;;;;;3.17;1.50;;;;;;;;;;5130308;28;20296;-77
2023/07/17 10:27:37;;;;;;;8.38;2.42;;;;;;;;;;5131641;27;20200;-77
2023/07/17 10:30:21;;;;;;;3.80;1.48;;;;;;;;;;5131528;27;20928;-77
2023/07/17 10:32:49;;;;;;;3.20;1.50;;;;;;;;;;5138791;27;20276;-77
2023/07/17 10:35:21;;;;;;;3.88;1.42;;;;;;;;;;5140929;27;20280;-77
2023/07/17 10:37:48;;;;;;;3.08;1.13;;;;;;;;;;5147062;27;20729;-77
2023/07/17 10:40:28;;;;;;;2.00;1.25;;;;;;;;;;5152130;27;20323;-77
2023/07/17 10:42:56;;;;;;;2.38;1.27;;;;;;;;;;5152462;27;20660;-76
2023/07/17 10:45:23;;;;;;;3.10;1.40;;;;;;;;;;5152503;27;20189;-78
2023/07/17 10:47:50;;;;;;;4.28;1.58;;;;;;;;;;5152104;27;20230;-77
2023/07/17 10:50:18;;;;;;;4.05;1.63;;;;;;;;;;5134799;27;20211;-76
2023/07/17 10:52:47;;;;;;;3.95;1.73;;;;;;;;;;5133684;27;20201;-76
2023/07/17 10:55:14;;;;;;;5.53;1.95;;;;;;;;;;5135322;27;20641;-77
2023/07/17 10:57:42;;;;;;;2.35;1.52;;;;;;;;;;5134336;27;20224;-77
2023/07/17 11:00:10;;;;;;;3.15;1.95;;;;;;;;;;5134533;27;20227;-76
2023/07/17 11:02:37;;;;;;;3.45;1.90;;;;;;;;;;5135123;27;20280;-77
2023/07/17 11:05:05;;;;;;;4.60;1.92;;;;;;;;;;5134652;27;20614;-77
2023/07/17 11:07:33;;;;;;;3.60;1.88;;;;;;;;;;5146411;27;20232;-76
2023/07/17 11:10:02;;;;;;;5.55;2.33;;;;;;;;;;5155391;27;20222;-76
2023/07/17 11:12:29;;;;;;;4.72;2.25;;;;;;;;;;5142143;27;20201;-76
2023/07/17 11:14:56;;;;;;;3.15;1.90;;;;;;;;;;5134080;27;20288;-76
2023/07/17 11:17:23;;;;;;;3.05;1.67;;;;;;;;;;5134015;27;20217;-77
2023/07/17 11:20:00;;;;;;;5.75;1.95;;;;;;;;;;5133720;27;20307;-76
2023/07/17 11:22:30;;;;;;;3.00;1.63;;;;;;;;;;5134224;27;20224;-77
2023/07/17 11:24:58;;;;;;;4.18;1.80;;;;;;;;;;5134562;27;20197;-76
2023/07/17 11:27:26;;;;;;;4.05;1.80;;;;;;;;;;5134242;27;20713;-75
2023/07/17 11:29:54;;;;;;;9.18;2.42;;;;;;;;;;5134584;27;20323;-77
2023/07/17 11:32:21;;;;;;;4.57;1.90;;;;;;;;;;5134336;27;20201;-77
2023/07/17 11:34:53;;;;;;;3.63;1.60;;;;;;;;;;5134089;27;20228;-77
2023/07/17 11:37:34;;;;;;;2.22;1.50;;;;;;;;;;5134094;27;20670;-77
2023/07/17 11:40:04;;;;;;;3.03;1.50;;;;;;;;;;5134978;27;20299;-76
2023/07/17 11:42:52;;;;;;;3.00;1.73;;;;;;;;;;5134667;27;20219;-77
2023/07/17 11:45:21;;;;;;;4.55;1.83;;;;;;;;;;5134308;27;20193;-75
2023/07/17 11:47:49;;;;;;;4.43;1.77;;;;;;;;;;5134134;27;20198;-76
2023/07/17 11:50:19;;;;;;;4.70;1.70;;;;;;;;;;5134284;27;20292;-76
2023/07/17 11:52:47;;;;;;;2.30;1.75;;;;;;;;;;5134267;27;20195;-76
2023/07/17 11:55:14;;;;;;;5.07;2.00;;;;;;;;;;5134707;27;20281;-76
2023/07/17 11:57:50;;;;;;;1.63;1.40;;;;;;;;;;5134261;27;20276;-76
2023/07/17 12:00:17;;;;;;;4.25;2.03;;;;;;;;;;5133844;27;20233;-77
2023/07/17 12:02:45;;;;;;;3.17;1.55;;;;;;;;;;5133885;27;20223;-76
2023/07/17 12:05:12;;;;;;;2.30;1.58;;;;;;;;;;5134309;27;20254;-76
2023/07/17 12:07:39;;;;;;;3.13;1.60;;;;;;;;;;5134095;27;20363;-77
2023/07/17 12:10:07;;;;;;;3.67;1.80;;;;;;;;;;5134052;27;20227;-77
2023/07/17 12:12:35;;;;;;;2.30;1.35;;;;;;;;;;5133961;27;20213;-77
2023/07/17 12:15:04;;;;;;;5.65;1.90;;;;;;;;;;5134253;27;20201;-76
2023/07/17 12:17:31;;;;;;;3.15;1.63;;;;;;;;;;5113039;28;20673;-76
2023/07/17 12:19:58;;;;;;;2.72;1.40;;;;;;;;;;5113464;28;20217;-77
2023/07/17 12:22:25;;;;;;;2.88;1.70;;;;;;;;;;5112893;28;20289;-77
2023/07/17 12:24:52;;;;;;;2.47;1.90;;;;;;;;;;5112900;28;20197;-76
2023/07/17 12:27:20;;;;;;;3.83;1.58;;;;;;;;;;5113143;28;20201;-76
2023/07/17 12:29:47;;;;;;;3.95;1.63;;;;;;;;;;5113653;28;20290;-76
2023/07/17 12:32:16;;;;;;;2.67;1.45;;;;;;;;;;5112548;28;20236;-76
2023/07/17 12:34:43;;;;;;;1.85;1.40;;;;;;;;;;5112952;28;20194;-77
2023/07/17 12:37:10;;;;;;;3.40;1.40;;;;;;;;;;5112949;28;20280;-76
2023/07/17 12:39:37;;;;;;;3.38;1.52;;;;;;;;;;5133840;27;20292;-77
2023/07/17 12:42:05;;;;;;;2.95;1.55;;;;;;;;;;5133159;27;20263;-76
2023/07/17 12:44:33;;;;;;;2.75;1.33;;;;;;;;;;5133727;27;20200;-76
2023/07/17 12:47:01;;;;;;;2.47;1.40;;;;;;;;;;5133366;27;20283;-77
2023/07/17 12:49:29;;;;;;;2.92;1.40;;;;;;;;;;5133672;27;20197;-77
2023/07/17 12:51:57;;;;;;;3.25;1.70;;;;;;;;;;5133072;27;20328;-77
2023/07/17 12:54:24;;;;;;;1.92;1.58;;;;;;;;;;5133424;27;20288;-76
2023/07/17 12:56:51;;;;;;;3.08;1.73;;;;;;;;;;5133378;27;20197;-76
2023/07/17 12:59:18;;;;;;;2.38;1.77;;;;;;;;;;5133084;27;20291;-76
2023/07/17 13:01:46;;;;;;;4.57;2.10;;;;;;;;;;5132763;27;20232;-77
2023/07/17 13:04:13;;;;;;;4.10;1.67;;;;;;;;;;5133142;27;20783;-74
2023/07/17 13:06:42;;;;;;;2.97;1.80;;;;;;;;;;5132736;27;20294;-76
2023/07/17 13:09:09;;;;;;;2.95;1.65;;;;;;;;;;5133003;27;20295;-77
2023/07/17 13:11:36;;;;;;;1.77;1.48;;;;;;;;;;5132899;27;20289;-75
2023/07/17 13:14:03;;;;;;;2.63;1.73;;;;;;;;;;5133288;27;20288;-75
2023/07/17 13:16:31;;;;;;;3.50;1.80;;;;;;;;;;5132425;27;20284;-76
2023/07/17 13:18:58;;;;;;;4.20;1.80;;;;;;;;;;5132555;27;20203;-76
2023/07/17 13:21:25;;;;;;;2.90;1.50;;;;;;;;;;5132505;27;20319;-75
2023/07/17 13:23:54;;;;;;;3.55;1.70;;;;;;;;;;5132537;27;20647;-76
2023/07/17 13:26:23;;;;;;;2.58;1.60;;;;;;;;;;5132534;27;20225;-76
2023/07/17 13:28:51;;;;;;;4.15;1.60;;;;;;;;;;5132590;27;20620;-77
2023/07/17 13:31:18;;;;;;;4.28;1.60;;;;;;;;;;5132289;27;20277;-77
2023/07/17 13:33:45;;;;;;;4.90;1.83;;;;;;;;;;5132963;27;20586;-77
2023/07/17 13:36:12;;;;;;;3.75;1.70;;;;;;;;;;5132522;27;20193;-77
2023/07/17 13:38:39;;;;;;;2.78;1.90;;;;;;;;;;5132417;27;20647;-76
2023/07/17 13:41:12;;;;;;;4.20;1.73;;;;;;;;;;5132578;27;20332;-77
2023/07/17 13:43:40;;;;;;;6.22;1.85;;;;;;;;;;5132398;27;20197;-77
2023/07/17 13:46:07;;;;;;;5.75;2.10;;;;;;;;;;5132641;27;20287;-77
2023/07/17 13:48:34;;;;;;;4.38;1.90;;;;;;;;;;5132210;27;20284;-78
2023/07/17 13:51:02;;;;;;;3.40;2.40;;;;;;;;;;5132476;27;20225;-77
2023/07/17 13:53:29;;;;;;;3.65;2.35;;;;;;;;;;5132391;28;20844;-77
2023/07/17 13:55:56;;;;;;;4.00;2.00;;;;;;;;;;5132534;28;20687;-76
2023/07/17 13:58:25;;;;;;;3.33;1.90;;;;;;;;;;5131506;28;20743;-77
2023/07/17 14:00:52;;;;;;;3.13;1.63;;;;;;;;;;5132390;28;20311;-77
2023/07/17 14:03:19;;;;;;;4.55;2.28;;;;;;;;;;5132327;27;20284;-77
2023/07/17 14:05:46;;;;;;;3.17;1.77;;;;;;;;;;5132325;28;20279;-76
2023/07/17 14:08:14;;;;;;;3.85;2.00;;;;;;;;;;5132224;28;20200;-77
2023/07/17 14:10:41;;;;;;;5.10;2.10;;;;;;;;;;5132258;28;20201;-77
2023/07/17 14:13:08;;;;;;;3.25;1.90;;;;;;;;;;5132191;28;20204;-77
2023/07/17 14:15:36;;;;;;;2.47;1.83;;;;;;;;;;5132531;28;20242;-75
2023/07/17 14:18:05;;;;;;;3.50;1.80;;;;;;;;;;5132142;28;20648;-77
2023/07/17 14:20:32;;;;;;;4.18;1.73;;;;;;;;;;5131985;28;20197;-77
2023/07/17 14:22:59;;;;;;;3.28;1.77;;;;;;;;;;5132235;28;20224;-77
2023/07/17 14:25:26;;;;;;;3.35;1.98;;;;;;;;;;5132002;27;20229;-76
2023/07/17 14:27:53;;;;;;;4.35;1.95;;;;;;;;;;5134286;27;20235;-77
2023/07/17 14:30:20;;;;;;;5.18;1.85;;;;;;;;;;5136262;27;20284;-76
2023/07/17 14:32:49;;;;;;;3.45;1.70;;;;;;;;;;5135703;27;20279;-76
2023/07/17 14:35:16;;;;;;;3.08;2.13;;;;;;;;;;5135981;27;20741;-77
2023/07/17 14:37:44;;;;;;;3.42;1.80;;;;;;;;;;5136503;27;20287;-77
2023/07/17 14:40:11;;;;;;;3.38;1.60;;;;;;;;;;5135590;27;20189;-76
2023/07/17 14:42:39;;;;;;;4.55;1.80;;;;;;;;;;5135497;27;20252;-77
2023/07/17 14:45:06;;;;;;;3.33;1.58;;;;;;;;;;5135887;27;20574;-77
2023/07/17 14:47:33;;;;;;;4.30;2.00;;;;;;;;;;5135441;27;20313;-76